createdAt,value
2018-07-23T00:01:26.300Z,19.70
2018-07-23T00:03:54.760Z,19.20
2018-07-23T00:06:23.139Z,19.43
2018-07-23T00:08:51.512Z,20.80
2018-07-23T00:11:19.876Z,18.63
2018-07-23T00:13:48.225Z,19.73
2018-07-23T00:16:16.635Z,19.27
2018-07-23T00:18:45.014Z,18.43
2018-07-23T00:21:13.425Z,18.50
2018-07-23T00:23:41.827Z,20.07
2018-07-23T00:26:10.180Z,19.13
2018-07-23T00:28:38.573Z,18.73
2018-07-23T00:31:06.924Z,18.90
2018-07-23T00:33:35.259Z,17.97
2018-07-23T00:36:03.598Z,17.33
2018-07-23T00:38:31.959Z,16.97
2018-07-23T00:41:00.333Z,16.47
2018-07-23T00:43:28.715Z,17.50
2018-07-23T00:45:57.107Z,16.50
2018-07-23T00:48:25.461Z,17.97
2018-07-23T00:50:53.864Z,17.03
2018-07-23T00:53:22.246Z,16.77
2018-07-23T00:55:50.601Z,16.40
2018-07-23T00:58:18.975Z,17.10
2018-07-23T01:00:47.334Z,16.97
2018-07-23T01:03:15.752Z,15.70
2018-07-23T01:05:44.202Z,16.40
2018-07-23T01:08:12.889Z,16.13
2018-07-23T01:10:41.388Z,15.90
2018-07-23T01:13:09.929Z,16.13
2018-07-23T01:15:38.365Z,16.33
2018-07-23T01:18:07.025Z,15.70
2018-07-23T01:20:35.378Z,15.07
2018-07-23T01:23:03.873Z,15.30
2018-07-23T01:25:32.369Z,14.47
2018-07-23T01:28:00.768Z,14.83
2018-07-23T01:30:29.109Z,16.50
2018-07-23T01:32:57.503Z,17.57
2018-07-23T01:35:26.000Z,15.77
2018-07-23T01:37:54.423Z,15.90
2018-07-23T01:40:22.791Z,16.40
2018-07-23T01:42:51.213Z,16.17
2018-07-23T01:45:19.555Z,14.97
2018-07-23T01:47:47.940Z,15.63
2018-07-23T01:50:16.301Z,16.23
2018-07-23T01:52:44.666Z,15.60
2018-07-23T01:55:13.020Z,14.93
2018-07-23T01:57:41.357Z,15.27
2018-07-23T02:00:09.729Z,14.53
2018-07-23T02:02:38.128Z,14.40
2018-07-23T02:05:06.472Z,13.93
2018-07-23T02:07:34.827Z,14.93
2018-07-23T02:10:03.192Z,15.00
2018-07-23T02:12:31.701Z,14.50
2018-07-23T02:15:00.063Z,13.87
2018-07-23T02:17:28.435Z,15.93
2018-07-23T02:19:57.084Z,15.20
2018-07-23T02:22:25.465Z,15.07
2018-07-23T02:24:53.828Z,14.40
2018-07-23T02:27:22.249Z,15.00
2018-07-23T02:29:50.582Z,16.13
2018-07-23T02:32:18.955Z,15.30
2018-07-23T02:34:47.352Z,15.47
2018-07-23T02:37:15.679Z,15.20
2018-07-23T02:39:44.078Z,15.73
2018-07-23T02:42:12.468Z,14.87
2018-07-23T02:44:40.819Z,15.13
2018-07-23T02:47:09.815Z,15.20
2018-07-23T02:49:38.515Z,16.37
2018-07-23T02:52:07.079Z,16.40
2018-07-23T02:54:35.871Z,16.10
2018-07-23T02:57:04.234Z,16.67
2018-07-23T02:59:32.617Z,17.10
2018-07-23T03:02:01.086Z,15.97
2018-07-23T03:04:29.494Z,16.97
2018-07-23T03:06:57.841Z,16.97
2018-07-23T03:09:26.208Z,18.60
2018-07-23T03:11:54.613Z,17.93
2018-07-23T03:14:23.290Z,20.60
2018-07-23T03:16:51.699Z,20.90
2018-07-23T03:19:20.043Z,19.10
2018-07-23T03:21:48.509Z,18.93
2018-07-23T03:24:16.821Z,20.47
2018-07-23T03:26:45.208Z,19.50
2018-07-23T03:29:13.577Z,21.10
2018-07-23T03:31:41.962Z,20.50
2018-07-23T03:34:10.422Z,22.20
2018-07-23T03:36:38.840Z,20.87
2018-07-23T03:39:09.050Z,22.10
2018-07-23T03:41:37.615Z,22.43
2018-07-23T03:44:06.110Z,22.47
2018-07-23T03:46:34.473Z,23.07
2018-07-23T03:49:03.052Z,23.23
2018-07-23T03:51:31.409Z,23.63
2018-07-23T03:53:59.833Z,22.47
2018-07-23T03:56:28.218Z,22.77
2018-07-23T03:58:56.670Z,22.57
2018-07-23T04:01:25.087Z,21.90
2018-07-23T04:03:53.508Z,22.53
2018-07-23T04:06:21.882Z,23.00
2018-07-23T04:08:50.349Z,22.70
2018-07-23T04:11:18.715Z,24.40
2018-07-23T04:13:47.121Z,25.33
2018-07-23T04:16:15.525Z,24.27
2018-07-23T04:18:43.995Z,24.33
2018-07-23T04:21:12.383Z,24.50
2018-07-23T04:23:40.845Z,23.93
2018-07-23T04:26:09.310Z,25.00
2018-07-23T04:28:38.169Z,24.83
2018-07-23T04:31:07.495Z,24.27
2018-07-23T04:33:36.989Z,22.50
2018-07-23T04:36:06.069Z,21.63
2018-07-23T04:38:34.691Z,20.43
2018-07-23T04:41:03.221Z,19.40
2018-07-23T04:43:31.633Z,19.03
2018-07-23T04:46:00.057Z,18.77
2018-07-23T04:48:28.782Z,18.67
2018-07-23T04:50:57.649Z,18.70
2018-07-23T04:53:26.097Z,18.90
2018-07-23T04:55:54.524Z,19.57
2018-07-23T04:58:22.996Z,18.13
2018-07-23T05:00:51.394Z,16.60
2018-07-23T05:03:19.752Z,17.20
2018-07-23T05:05:48.214Z,17.13
2018-07-23T05:08:16.561Z,16.70
2018-07-23T05:10:45.444Z,16.20
2018-07-23T05:13:14.670Z,15.80
2018-07-23T05:15:44.410Z,14.93
2018-07-23T05:18:13.212Z,14.47
2018-07-23T05:20:41.624Z,15.63
2018-07-23T05:23:10.043Z,14.50
2018-07-23T05:25:38.382Z,14.67
2018-07-23T05:28:06.887Z,14.37
2018-07-23T05:30:35.380Z,14.60
2018-07-23T05:33:04.070Z,14.57
2018-07-23T05:35:32.417Z,13.67
2018-07-23T05:38:00.753Z,13.47
2018-07-23T05:40:29.125Z,13.20
2018-07-23T05:42:57.760Z,13.10
2018-07-23T05:45:26.153Z,12.73
2018-07-23T05:47:54.556Z,11.27
2018-07-23T05:50:22.930Z,11.77
2018-07-23T05:52:51.316Z,11.47
2018-07-23T05:55:19.973Z,11.40
2018-07-23T05:57:48.436Z,10.60
2018-07-23T06:00:17.059Z,9.83
2018-07-23T06:02:45.709Z,9.70
2018-07-23T06:05:14.172Z,9.10
2018-07-23T06:07:42.705Z,8.57
2018-07-23T06:10:11.188Z,8.53
2018-07-23T06:12:39.946Z,8.17
2018-07-23T06:15:08.963Z,8.80
2018-07-23T06:17:37.449Z,7.47
2018-07-23T06:20:07.362Z,7.37
2018-07-23T06:22:35.756Z,8.27
2018-07-23T06:25:04.278Z,8.20
2018-07-23T06:27:32.809Z,8.00
2018-07-23T06:30:01.295Z,7.60
2018-07-23T06:32:29.744Z,7.53
2018-07-23T06:34:58.273Z,6.80
2018-07-23T06:37:26.684Z,7.10
2018-07-23T06:39:55.063Z,7.27
2018-07-23T06:42:23.500Z,6.70
2018-07-23T06:44:51.871Z,6.60
2018-07-23T06:47:20.286Z,6.67
2018-07-23T06:49:48.689Z,6.10
2018-07-23T06:52:17.073Z,6.07
2018-07-23T06:54:45.839Z,6.27
2018-07-23T06:57:14.272Z,5.83
2018-07-23T06:59:42.627Z,5.47
2018-07-23T07:02:11.117Z,5.00
2018-07-23T07:04:39.590Z,5.28
2018-07-23T07:07:07.998Z,3.58
2018-07-23T07:09:36.443Z,3.90
2018-07-23T07:12:04.993Z,4.17
2018-07-23T07:14:33.573Z,3.12
2018-07-23T07:17:01.961Z,3.15
2018-07-23T07:19:30.600Z,2.75
2018-07-23T07:21:59.136Z,2.92
2018-07-23T07:24:27.495Z,2.58
2018-07-23T07:26:55.826Z,2.75
2018-07-23T07:29:24.208Z,2.58
2018-07-23T07:31:52.551Z,2.37
2018-07-23T07:34:20.972Z,2.35
2018-07-23T07:36:49.397Z,3.15
2018-07-23T07:39:17.779Z,2.98
2018-07-23T07:41:46.143Z,2.75
2018-07-23T07:44:14.534Z,2.20
2018-07-23T07:46:42.897Z,2.17
2018-07-23T07:49:11.419Z,2.25
2018-07-23T07:51:39.893Z,2.20
2018-07-23T07:54:08.584Z,2.40
2018-07-23T07:56:36.958Z,2.75
2018-07-23T07:59:05.365Z,2.70
2018-07-23T08:01:33.757Z,2.95
2018-07-23T08:04:02.180Z,2.62
2018-07-23T08:06:30.510Z,2.30
2018-07-23T08:08:58.880Z,2.52
2018-07-23T08:11:27.278Z,3.27
2018-07-23T08:13:55.628Z,3.27
2018-07-23T08:16:24.022Z,2.50
2018-07-23T08:18:52.577Z,3.00
2018-07-23T08:21:21.161Z,2.92
2018-07-23T08:23:49.547Z,3.47
2018-07-23T08:26:17.896Z,3.20
2018-07-23T08:28:46.566Z,2.87
2018-07-23T08:31:14.902Z,3.15
2018-07-23T08:33:43.231Z,2.90
2018-07-23T08:36:11.569Z,2.77
2018-07-23T08:38:40.007Z,2.87
2018-07-23T08:41:08.339Z,3.10
2018-07-23T08:43:36.701Z,3.02
2018-07-23T08:46:05.063Z,3.20
2018-07-23T08:48:33.621Z,2.95
2018-07-23T08:51:02.007Z,3.05
2018-07-23T08:53:30.378Z,2.77
2018-07-23T08:55:58.732Z,2.85
2018-07-23T08:58:27.105Z,3.02
2018-07-23T09:00:55.468Z,3.05
2018-07-23T09:03:23.843Z,2.92
2018-07-23T09:05:52.254Z,3.85
2018-07-23T09:08:20.661Z,3.00
2018-07-23T09:10:49.005Z,3.10
2018-07-23T09:13:17.396Z,3.90
2018-07-23T09:15:45.749Z,3.90
2018-07-23T09:18:14.112Z,3.70
2018-07-23T09:20:42.466Z,3.30
2018-07-23T09:23:10.820Z,3.47
2018-07-23T09:25:44.548Z,3.72
2018-07-23T09:28:12.916Z,3.27
2018-07-23T09:30:46.468Z,3.27
2018-07-23T09:33:14.806Z,3.72
2018-07-23T09:35:43.213Z,3.02
2018-07-23T09:38:11.597Z,2.98
2018-07-23T09:40:39.989Z,4.08
2018-07-23T09:43:08.691Z,3.50
2018-07-23T09:45:37.080Z,4.58
2018-07-23T09:48:05.521Z,4.45
2018-07-23T09:50:34.402Z,3.58
2018-07-23T09:53:02.739Z,4.47
2018-07-23T09:55:32.237Z,4.47
2018-07-23T09:58:00.611Z,4.05
2018-07-23T10:00:34.213Z,3.80
2018-07-23T10:03:02.653Z,3.87
2018-07-23T10:05:30.956Z,3.65
2018-07-23T10:07:59.339Z,3.87
2018-07-23T10:10:27.920Z,3.50
2018-07-23T10:12:56.296Z,3.92
2018-07-23T10:15:24.659Z,4.03
2018-07-23T10:17:53.013Z,4.45
2018-07-23T10:20:21.514Z,4.03
2018-07-23T10:22:49.915Z,4.25
2018-07-23T10:25:18.275Z,4.80
2018-07-23T10:27:46.645Z,4.10
2018-07-23T10:30:15.095Z,3.87
2018-07-23T10:32:43.454Z,3.92
2018-07-23T10:35:11.860Z,4.78
2018-07-23T10:37:40.169Z,3.95
2018-07-23T10:40:08.567Z,4.28
2018-07-23T10:42:36.931Z,4.10
2018-07-23T10:45:05.805Z,4.10
2018-07-23T10:47:34.176Z,4.10
2018-07-23T10:50:02.565Z,4.12
2018-07-23T10:52:30.981Z,4.55
2018-07-23T10:54:59.357Z,3.87
2018-07-23T10:57:27.790Z,4.22
2018-07-23T10:59:56.164Z,4.60
2018-07-23T11:02:24.507Z,4.20
2018-07-23T11:04:52.890Z,4.15
2018-07-23T11:07:21.552Z,4.37
2018-07-23T11:09:49.908Z,4.75
2018-07-23T11:12:18.232Z,4.55
2018-07-23T11:14:46.585Z,4.50
2018-07-23T11:17:14.936Z,3.98
2018-07-23T11:19:43.279Z,4.12
2018-07-23T11:22:11.638Z,4.47
2018-07-23T11:24:45.444Z,4.37
2018-07-23T11:27:08.400Z,3.87
2018-07-23T11:29:36.749Z,3.95
2018-07-23T11:32:05.173Z,4.67
2018-07-23T11:34:33.470Z,4.10
2018-07-23T11:37:01.878Z,4.75
2018-07-23T11:39:30.245Z,4.70
2018-07-23T11:41:58.639Z,4.20
2018-07-23T11:44:26.950Z,4.12
2018-07-23T11:46:55.323Z,3.95
2018-07-23T11:49:23.746Z,4.22
2018-07-23T11:51:52.153Z,4.30
2018-07-23T11:54:20.537Z,4.33
2018-07-23T11:56:48.997Z,5.10
2018-07-23T11:59:17.726Z,4.47
2018-07-23T12:01:46.128Z,4.47
2018-07-23T12:04:14.527Z,4.25
2018-07-23T12:06:42.877Z,4.12
2018-07-23T12:09:11.912Z,4.50
2018-07-23T12:11:40.567Z,4.25
2018-07-23T12:14:09.001Z,5.00
2018-07-23T12:16:37.784Z,4.58
2018-07-23T12:19:06.246Z,4.70
2018-07-23T12:21:34.613Z,5.35
2018-07-23T12:24:03.772Z,4.28
2018-07-23T12:26:32.558Z,4.37
2018-07-23T12:29:01.102Z,4.05
2018-07-23T12:31:29.464Z,4.22
2018-07-23T12:33:57.946Z,4.30
2018-07-23T12:36:26.311Z,4.17
2018-07-23T12:38:54.712Z,4.05
2018-07-23T12:41:23.133Z,4.20
2018-07-23T12:43:51.704Z,4.67
2018-07-23T12:46:20.399Z,4.65
2018-07-23T12:48:48.859Z,4.72
2018-07-23T12:51:17.202Z,4.12
2018-07-23T12:53:45.615Z,4.08
2018-07-23T12:56:13.988Z,4.60
2018-07-23T12:58:42.392Z,4.53
2018-07-23T13:01:10.812Z,4.50
2018-07-23T13:03:39.215Z,4.40
2018-07-23T13:06:07.581Z,3.95
2018-07-23T13:08:36.051Z,4.33
2018-07-23T13:11:04.448Z,4.03
2018-07-23T13:13:32.804Z,4.08
2018-07-23T13:16:01.227Z,4.42
2018-07-23T13:18:29.754Z,4.25
2018-07-23T13:20:58.118Z,4.00
2018-07-23T13:23:26.461Z,4.08
2018-07-23T13:25:55.158Z,3.40
2018-07-23T13:28:23.513Z,3.27
2018-07-23T13:30:52.022Z,4.35
2018-07-23T13:33:20.392Z,3.87
2018-07-23T13:35:48.733Z,3.95
2018-07-23T13:38:17.126Z,3.72
2018-07-23T13:40:45.533Z,4.03
2018-07-23T13:43:13.895Z,3.58
2018-07-23T13:45:42.256Z,3.90
2018-07-23T13:48:10.617Z,3.58
2018-07-23T13:50:38.990Z,3.75
2018-07-23T13:53:07.377Z,3.60
2018-07-23T13:55:35.780Z,3.92
2018-07-23T13:58:04.151Z,3.80
2018-07-23T14:00:32.481Z,3.90
2018-07-23T14:03:00.839Z,3.83
2018-07-23T14:05:29.175Z,3.70
2018-07-23T14:07:57.553Z,3.20
2018-07-23T14:10:25.866Z,3.60
2018-07-23T14:12:54.190Z,3.80
2018-07-23T14:15:22.523Z,4.35
2018-07-23T14:17:50.884Z,3.60
2018-07-23T14:20:19.567Z,4.12
2018-07-23T14:22:47.982Z,3.40
2018-07-23T14:25:16.545Z,3.35
2018-07-23T14:27:44.873Z,3.50
2018-07-23T14:30:13.283Z,3.72
2018-07-23T14:32:41.628Z,3.67
2018-07-23T14:35:10.021Z,3.87
2018-07-23T14:37:38.399Z,4.03
2018-07-23T14:40:06.753Z,4.03
2018-07-23T14:42:37.310Z,4.00
2018-07-23T14:45:07.672Z,3.42
2018-07-23T14:47:36.021Z,3.40
2018-07-23T14:50:04.715Z,4.12
2018-07-23T14:52:33.200Z,4.12
2018-07-23T14:55:01.525Z,3.83
2018-07-23T14:57:29.895Z,3.75
2018-07-23T15:00:05.199Z,3.87
2018-07-23T15:02:40.725Z,3.77
2018-07-23T15:05:11.455Z,4.05
2018-07-23T15:07:39.894Z,3.90
2018-07-23T15:10:08.617Z,4.08
2018-07-23T15:12:41.803Z,3.92
2018-07-23T15:15:10.186Z,4.00
2018-07-23T15:17:43.859Z,3.70
2018-07-23T15:20:14.000Z,4.22
2018-07-23T15:22:42.349Z,3.80
2018-07-23T15:25:10.858Z,3.80
2018-07-23T15:27:39.196Z,3.75
2018-07-23T15:30:07.766Z,3.40
2018-07-23T15:32:40.426Z,4.03
2018-07-23T15:35:09.369Z,3.92
2018-07-23T15:37:39.599Z,4.03
2018-07-23T15:40:08.120Z,4.00
2018-07-23T15:42:38.113Z,3.92
2018-07-23T15:45:08.240Z,4.10
2018-07-23T15:47:37.317Z,3.90
2018-07-23T15:50:05.834Z,4.20
2018-07-23T15:52:34.172Z,3.87
2018-07-23T15:55:04.735Z,3.60
2018-07-23T15:57:35.437Z,3.80
2018-07-23T16:00:05.904Z,3.75
2018-07-23T16:02:36.403Z,3.33
2018-07-23T16:05:07.931Z,3.62
2018-07-23T16:07:36.341Z,3.90
2018-07-23T16:10:07.827Z,3.30
2018-07-23T16:12:36.168Z,3.58
2018-07-23T16:15:12.201Z,3.42
2018-07-23T16:17:42.143Z,3.30
2018-07-23T16:20:11.112Z,3.10
2018-07-23T16:22:39.511Z,3.17
2018-07-23T16:25:09.864Z,3.25
2018-07-23T16:27:38.965Z,3.45
2018-07-23T16:30:11.229Z,2.92
2018-07-23T16:32:39.765Z,3.25
2018-07-23T16:35:15.520Z,3.00
2018-07-23T16:37:45.120Z,2.98
2018-07-23T16:40:15.267Z,2.87
2018-07-23T16:42:46.756Z,3.00
2018-07-23T16:45:15.488Z,3.12
2018-07-23T16:47:44.102Z,3.20
2018-07-23T16:50:12.658Z,3.00
2018-07-23T16:52:40.972Z,3.20
2018-07-23T16:55:09.914Z,3.10
2018-07-23T16:57:38.310Z,2.92
2018-07-23T17:00:08.102Z,2.90
2018-07-23T17:02:38.688Z,3.20
2018-07-23T17:05:09.482Z,3.10
2018-07-23T17:07:40.446Z,3.25
2018-07-23T17:10:08.860Z,3.02
2018-07-23T17:12:37.770Z,3.12
2018-07-23T17:15:07.232Z,3.12
2018-07-23T17:17:37.822Z,3.30
2018-07-23T17:20:07.156Z,3.37
2018-07-23T17:22:36.244Z,3.05
2018-07-23T17:25:05.021Z,2.98
2018-07-23T17:27:34.221Z,3.17
2018-07-23T17:30:02.657Z,3.27
2018-07-23T17:32:32.527Z,2.95
2018-07-23T17:35:02.121Z,3.27
2018-07-23T17:37:31.218Z,3.55
2018-07-23T17:40:00.587Z,3.33
2018-07-23T17:42:29.469Z,2.83
2018-07-23T17:45:00.865Z,3.12
2018-07-23T17:47:30.470Z,3.27
2018-07-23T17:49:59.335Z,2.87
2018-07-23T17:52:30.427Z,2.70
2018-07-23T17:54:59.194Z,3.12
2018-07-23T17:57:29.854Z,2.92
2018-07-23T18:00:02.468Z,3.15
2018-07-23T18:02:33.079Z,2.92
2018-07-23T18:05:01.465Z,3.02
2018-07-23T18:07:29.920Z,3.22
2018-07-23T18:09:58.300Z,2.95
2018-07-23T18:12:27.104Z,2.90
2018-07-23T18:14:55.519Z,2.67
2018-07-23T18:17:23.914Z,3.00
2018-07-23T18:19:52.250Z,3.55
2018-07-23T18:22:21.385Z,9.25
2018-07-23T18:24:50.084Z,13.50
2018-07-23T18:27:18.479Z,13.05
2018-07-23T18:29:47.350Z,6.25
2018-07-23T18:32:15.752Z,3.40
2018-07-23T18:34:44.400Z,3.65
2018-07-23T18:37:13.075Z,3.58
2018-07-23T18:39:41.365Z,4.40
2018-07-23T18:42:11.710Z,4.17
2018-07-23T18:44:40.097Z,4.00
2018-07-23T18:47:08.471Z,4.50
2018-07-23T18:49:49.098Z,4.12
2018-07-23T18:52:18.218Z,3.87
2018-07-23T18:54:48.083Z,3.95
2018-07-23T18:57:16.461Z,3.65
2018-07-23T18:59:45.445Z,4.85
2018-07-23T19:02:15.287Z,3.40
2018-07-23T19:04:43.689Z,3.77
2018-07-23T19:07:12.249Z,4.42
2018-07-23T19:09:41.322Z,5.10
2018-07-23T19:12:10.476Z,5.97
2018-07-23T19:14:38.904Z,6.20
2018-07-23T19:17:09.212Z,5.75
2018-07-23T19:19:37.747Z,5.47
2018-07-23T19:22:06.935Z,5.30
2018-07-23T19:24:35.899Z,4.58
2018-07-23T19:27:05.143Z,5.10
2018-07-23T19:29:33.947Z,4.47
2018-07-23T19:32:02.517Z,4.85
2018-07-23T19:34:30.894Z,5.30
2018-07-23T19:36:59.729Z,4.53
2018-07-23T19:39:28.088Z,4.97
2018-07-23T19:41:56.934Z,4.50
2018-07-23T19:44:25.610Z,3.67
2018-07-23T19:46:54.379Z,3.70
2018-07-23T19:49:23.727Z,4.00
2018-07-23T19:51:52.741Z,4.00
2018-07-23T19:54:21.982Z,4.43
2018-07-23T19:56:50.347Z,3.90
2018-07-23T19:59:18.769Z,4.50
2018-07-23T20:01:47.241Z,4.33
2018-07-23T20:04:15.922Z,4.80
2018-07-23T20:06:44.348Z,3.80
2018-07-23T20:09:12.972Z,4.97
2018-07-23T20:11:42.418Z,4.83
2018-07-23T20:14:11.898Z,4.43
2018-07-23T20:16:40.662Z,5.07
2018-07-23T20:19:09.115Z,4.67
2018-07-23T20:21:38.372Z,5.27
2018-07-23T20:24:07.000Z,5.10
2018-07-23T20:26:35.789Z,4.93
2018-07-23T20:29:04.331Z,4.80
2018-07-23T20:31:33.083Z,6.00
2018-07-23T20:34:01.736Z,5.13
2018-07-23T20:36:30.173Z,5.03
2018-07-23T20:38:58.895Z,6.03
2018-07-23T20:41:27.634Z,5.37
2018-07-23T20:43:56.009Z,4.77
2018-07-23T20:46:24.484Z,4.37
2018-07-23T20:48:53.084Z,4.83
2018-07-23T20:51:21.593Z,4.63
2018-07-23T20:53:50.200Z,4.50
2018-07-23T20:56:18.722Z,4.37
2018-07-23T20:58:47.482Z,4.97
2018-07-23T21:01:15.852Z,4.27
2018-07-23T21:03:44.566Z,4.17
2018-07-23T21:06:13.980Z,4.53
2018-07-23T21:08:42.517Z,5.00
2018-07-23T21:11:10.956Z,5.00
2018-07-23T21:13:39.405Z,4.40
2018-07-23T21:16:10.161Z,4.63
2018-07-23T21:18:38.647Z,4.60
2018-07-23T21:21:07.050Z,4.47
2018-07-23T21:23:35.481Z,4.87
2018-07-23T21:26:03.948Z,4.20
2018-07-23T21:28:34.128Z,3.97
2018-07-23T21:31:02.852Z,3.67
2018-07-23T21:33:31.724Z,4.53
2018-07-23T21:36:00.085Z,3.77
2018-07-23T21:38:28.534Z,3.70
2018-07-23T21:40:58.127Z,3.80
2018-07-23T21:43:27.173Z,4.57
2018-07-23T21:45:55.679Z,3.97
2018-07-23T21:48:23.998Z,3.60
2018-07-23T21:50:52.514Z,4.50
2018-07-23T21:53:20.944Z,4.40
2018-07-23T21:55:49.487Z,4.40
2018-07-23T21:58:17.934Z,4.70
2018-07-23T22:00:46.595Z,4.20
2018-07-23T22:03:14.994Z,4.30
2018-07-23T22:05:43.813Z,4.50
2018-07-23T22:08:12.804Z,4.57
2018-07-23T22:10:41.940Z,4.60
2018-07-23T22:13:13.094Z,5.00
2018-07-23T22:15:41.940Z,4.63
2018-07-23T22:21:08.184Z,4.67
2018-07-23T22:49:21.669Z,5.97
2018-07-23T22:51:50.101Z,5.13
2018-07-23T22:54:18.661Z,6.13
2018-07-23T22:56:47.472Z,4.93
2018-07-23T22:59:15.834Z,5.00
2018-07-23T23:01:44.228Z,4.83
2018-07-23T23:04:12.593Z,4.80
2018-07-23T23:06:41.039Z,4.83
2018-07-23T23:09:10.729Z,4.80
2018-07-23T23:11:39.286Z,4.80
2018-07-23T23:14:07.773Z,4.83
2018-07-23T23:16:36.098Z,4.63
2018-07-23T23:19:04.852Z,5.00
2018-07-23T23:21:33.511Z,4.57
2018-07-23T23:24:02.380Z,4.90
2018-07-23T23:26:31.267Z,4.90
2018-07-23T23:29:00.109Z,4.67
2018-07-23T23:31:28.520Z,5.77
2018-07-23T23:33:56.841Z,5.47
2018-07-23T23:36:25.429Z,6.13
2018-07-23T23:38:53.801Z,6.03
2018-07-23T23:41:22.729Z,6.37
2018-07-23T23:43:51.174Z,6.57
2018-07-23T23:46:19.886Z,5.90
2018-07-23T23:48:48.259Z,5.60
2018-07-23T23:51:16.824Z,4.93
2018-07-23T23:53:45.617Z,4.57
2018-07-23T23:56:13.926Z,5.27
2018-07-23T23:58:42.368Z,5.63
